Time;durP1;ratioP1;P1;durP2;ratioP2;P2;SDS_P1;SDS_P2;PMS_P1;PMS_P2;Temp;Humidity;BMP_temperature;BMP_pressure;BME280_temperature;BME280_humidity;BME280_pressure;Samples;Min_cycle;Max_cycle;Signal;HPM_P1;HPM_P2
2022/05/23 00:01:20;;;;;;;11.30;4.47;;;19.90;94.00;;;;;;7349387;19;107282;-94
2022/05/23 00:03:47;;;;;;;7.05;4.47;;;19.80;94.00;;;;;;7350100;19;107821;-94
2022/05/23 00:06:19;;;;;;;7.47;4.25;;;19.80;93.90;;;;;;7350340;19;108081;-94
2022/05/23 00:08:46;;;;;;;7.25;3.83;;;19.90;93.90;;;;;;7350892;19;109638;-95
2022/05/23 00:11:13;;;;;;;7.88;4.03;;;20.00;93.80;;;;;;7353720;19;108990;-94
2022/05/23 00:13:40;;;;;;;5.15;3.92;;;20.00;93.80;;;;;;7348763;19;111620;-95
2022/05/23 00:16:07;;;;;;;12.43;4.55;;;20.10;93.70;;;;;;7350594;19;107515;-94
2022/05/23 00:18:34;;;;;;;7.40;3.80;;;20.00;93.80;;;;;;7349059;19;110501;-94
2022/05/23 00:21:01;;;;;;;7.20;4.72;;;19.80;94.10;;;;;;7350003;19;108958;-94
2022/05/23 00:23:28;;;;;;;7.97;4.43;;;19.80;94.90;;;;;;7351166;19;108005;-94
2022/05/23 00:25:56;;;;;;;8.38;4.05;;;19.60;94.70;;;;;;7349998;19;107779;-95
2022/05/23 00:28:23;;;;;;;9.57;4.50;;;19.60;94.70;;;;;;7350150;19;107977;-94
2022/05/23 00:30:50;;;;;;;11.68;5.35;;;19.60;94.90;;;;;;7350014;19;110357;-95
2022/05/23 00:36:02;;;;;;;11.02;5.10;;;19.50;94.90;;;;;;7349996;19;108331;-95
2022/05/23 00:38:30;;;;;;;12.00;4.60;;;19.60;95.00;;;;;;7350382;19;108117;-94
2022/05/23 00:44:01;;;;;;;10.63;4.70;;;19.60;94.80;;;;;;7349944;19;107753;-94
2022/05/23 00:46:28;;;;;;;9.35;4.75;;;19.60;95.00;;;;;;7348871;19;107536;-94
2022/05/23 00:48:58;;;;;;;10.95;4.38;;;19.60;95.20;;;;;;7347251;19;111334;-94
2022/05/23 00:51:26;;;;;;;8.70;4.60;;;19.60;95.40;;;;;;7349663;19;109928;-94
2022/05/23 00:53:59;;;;;;;10.35;5.05;;;19.60;95.60;;;;;;7348724;19;109749;-94
2022/05/23 00:56:35;;;;;;;12.40;4.93;;;19.70;95.70;;;;;;7355265;19;108005;-94
2022/05/23 00:59:04;;;;;;;16.80;5.53;;;19.70;95.90;;;;;;7347317;19;108649;-94
2022/05/23 01:01:35;;;;;;;14.32;5.20;;;19.70;95.90;;;;;;7349311;19;108426;-94
2022/05/23 01:04:03;;;;;;;14.43;5.35;;;19.50;95.70;;;;;;7350453;19;106911;-94
2022/05/23 01:06:30;;;;;;;15.95;5.38;;;19.40;95.90;;;;;;7348257;19;107189;-94
2022/05/23 01:08:57;;;;;;;17.98;5.85;;;19.20;96.60;;;;;;7349872;19;109772;-93
2022/05/23 01:11:25;;;;;;;14.52;5.50;;;19.10;96.60;;;;;;7349847;19;107364;-95
2022/05/23 01:13:53;;;;;;;15.23;5.93;;;19.10;96.90;;;;;;7345909;19;108447;-94
2022/05/23 01:16:22;;;;;;;14.45;5.82;;;19.10;96.50;;;;;;7349943;19;108120;-94
2022/05/23 01:18:50;;;;;;;10.60;4.93;;;19.20;96.40;;;;;;7354994;19;110418;-95
2022/05/23 01:21:33;;;;;;;15.45;5.10;;;19.20;96.50;;;;;;7347382;19;111410;-94
2022/05/23 01:24:12;;;;;;;16.95;5.38;;;19.30;96.40;;;;;;7348689;19;108097;-94
2022/05/23 01:26:39;;;;;;;12.77;5.57;;;19.40;96.60;;;;;;7347668;19;107941;-95
2022/05/23 01:29:14;;;;;;;13.27;5.85;;;19.40;96.50;;;;;;7348385;19;110311;-93
2022/05/23 01:31:43;;;;;;;16.80;6.00;;;19.40;96.70;;;;;;7348278;19;108099;-94
2022/05/23 01:34:10;;;;;;;16.35;5.90;;;19.40;96.90;;;;;;7347956;19;107513;-93
2022/05/23 01:36:37;;;;;;;18.83;6.00;;;19.40;96.90;;;;;;7348336;19;111064;-93
2022/05/23 01:39:04;;;;;;;19.73;6.35;;;19.30;96.90;;;;;;7349092;19;108174;-94
2022/05/23 01:41:31;;;;;;;14.80;6.07;;;19.20;97.20;;;;;;7352431;19;108599;-93
2022/05/23 01:43:58;;;;;;;15.73;6.28;;;19.20;97.20;;;;;;7348443;19;108406;-94
2022/05/23 01:46:25;;;;;;;21.02;6.32;;;19.10;97.20;;;;;;7348640;19;108288;-93
2022/05/23 01:48:52;;;;;;;20.65;7.05;;;19.10;97.30;;;;;;7346963;19;107782;-94
2022/05/23 01:51:19;;;;;;;23.50;7.05;;;19.00;97.60;;;;;;7345463;19;108326;-94
2022/05/23 01:53:46;;;;;;;18.25;6.90;;;18.90;97.70;;;;;;7346560;19;109655;-94
2022/05/23 01:56:13;;;;;;;19.02;6.32;;;18.90;97.60;;;;;;7346001;19;111642;-94
2022/05/23 02:01:26;;;;;;;17.65;6.38;;;18.90;97.80;;;;;;7353779;19;110069;-94
2022/05/23 02:03:53;;;;;;;18.65;6.60;;;18.70;98.20;;;;;;7346568;19;107650;-94
2022/05/23 02:06:21;;;;;;;19.40;6.82;;;18.60;98.60;;;;;;7345685;19;107737;-93
2022/05/23 02:08:48;;;;;;;15.68;6.32;;;18.50;98.90;;;;;;7347140;19;107923;-93
2022/05/23 02:11:15;;;;;;;16.75;6.55;;;18.50;99.00;;;;;;7347592;19;110889;-93
2022/05/23 02:13:44;;;;;;;18.50;7.38;;;18.60;98.90;;;;;;7345584;19;107294;-93
2022/05/23 02:16:12;;;;;;;13.23;6.45;;;18.60;98.90;;;;;;7347106;19;110123;-94
2022/05/23 02:18:39;;;;;;;16.77;7.05;;;18.70;98.80;;;;;;7345460;19;107210;-93
2022/05/23 02:21:07;;;;;;;11.57;6.60;;;18.60;99.10;;;;;;7344739;19;108063;-94
2022/05/23 02:23:35;;;;;;;14.93;6.50;;;18.60;99.30;;;;;;7350654;19;109175;-91
2022/05/23 02:26:03;;;;;;;17.15;7.15;;;18.60;99.40;;;;;;7351135;19;110710;-94
2022/05/23 02:28:30;;;;;;;13.60;6.00;;;18.50;99.70;;;;;;7351449;19;108847;-94
2022/05/23 02:30:57;;;;;;;12.30;6.78;;;18.40;99.90;;;;;;7352351;19;109456;-94
2022/05/23 02:33:25;;;;;;;12.85;6.70;;;18.40;99.90;;;;;;7353333;19;109413;-93
2022/05/23 02:35:52;;;;;;;12.90;7.03;;;18.50;99.90;;;;;;7352010;19;110340;-94
2022/05/23 02:38:19;;;;;;;15.05;6.78;;;18.60;99.90;;;;;;7353466;19;107258;-95
2022/05/23 02:40:46;;;;;;;18.55;7.32;;;18.70;99.80;;;;;;7350251;19;109598;-95
2022/05/23 02:43:13;;;;;;;14.32;6.90;;;18.70;99.90;;;;;;7351619;19;111136;-95
2022/05/23 02:45:41;;;;;;;16.73;7.18;;;18.70;99.70;;;;;;7357347;19;109764;-95
2022/05/23 02:48:09;;;;;;;15.73;7.32;;;18.70;99.90;;;;;;7351791;19;110189;-95
2022/05/23 02:50:36;;;;;;;15.52;7.30;;;18.70;99.90;;;;;;7351168;19;107522;-94
2022/05/23 02:53:03;;;;;;;18.95;8.00;;;18.70;99.90;;;;;;7351847;19;108208;-94
2022/05/23 02:55:30;;;;;;;15.63;6.60;;;18.70;99.90;;;;;;7350686;19;108815;-94
2022/05/23 02:57:57;;;;;;;19.33;6.95;;;18.70;99.90;;;;;;7349469;19;108205;-95
2022/05/23 03:00:24;;;;;;;14.15;7.80;;;18.70;99.90;;;;;;7350959;19;107272;-95
2022/05/23 03:03:03;;;;;;;11.13;7.20;;;18.70;99.90;;;;;;7353415;19;108103;-95
2022/05/23 03:05:37;;;;;;;15.90;8.07;;;18.50;99.90;;;;;;7351344;19;108112;-94
2022/05/23 03:08:04;;;;;;;11.95;7.90;;;18.40;99.90;;;;;;7357130;19;107135;-94
2022/05/23 03:10:32;;;;;;;14.30;8.05;;;18.20;99.90;;;;;;7352723;19;108023;-94
2022/05/23 03:13:04;;;;;;;10.93;7.72;;;18.20;99.90;;;;;;7348640;19;108103;-95
2022/05/23 03:15:31;;;;;;;11.70;7.55;;;18.20;99.90;;;;;;7353962;19;108118;-96
2022/05/23 03:17:58;;;;;;;11.45;7.53;;;18.30;99.90;;;;;;7351580;19;108064;-95
2022/05/23 03:20:26;;;;;;;14.82;7.75;;;18.30;99.90;;;;;;7352223;19;107155;-94
2022/05/23 03:28:26;;;;;;;10.85;8.00;;;18.30;99.90;;;;;;7352498;19;108491;-95
2022/05/23 03:30:53;;;;;;;11.75;7.13;;;18.10;99.90;;;;;;7357752;19;110602;-95
2022/05/23 03:33:21;;;;;;;9.48;7.15;;;18.10;99.90;;;;;;7354509;19;108297;-96
2022/05/23 03:35:48;;;;;;;16.67;7.70;;;18.20;99.90;;;;;;7350508;19;109453;-95
2022/05/23 03:38:15;;;;;;;12.45;7.18;;;18.20;99.90;;;;;;7348899;19;107660;-95
2022/05/23 03:40:43;;;;;;;9.85;7.22;;;18.20;99.90;;;;;;7348281;19;108283;-95
2022/05/23 03:43:11;;;;;;;13.27;7.68;;;18.20;99.90;;;;;;7350753;19;111512;-96
2022/05/23 03:45:38;;;;;;;16.60;8.25;;;18.20;99.90;;;;;;7351892;19;108278;-95
2022/05/23 03:48:06;;;;;;;13.00;8.13;;;18.10;99.90;;;;;;7373626;19;110620;-94
2022/05/23 03:50:34;;;;;;;15.05;8.63;;;17.90;99.90;;;;;;7378033;19;111827;-94
2022/05/23 03:53:03;;;;;;;15.27;8.93;;;17.90;99.90;;;;;;7385421;19;106649;-95
2022/05/23 03:55:31;;;;;;;10.95;7.97;;;17.80;99.90;;;;;;7380674;19;109834;-94
2022/05/23 03:57:58;;;;;;;14.00;7.85;;;17.70;99.90;;;;;;7379442;19;107118;-94
2022/05/23 04:00:25;;;;;;;14.52;7.93;;;17.70;99.90;;;;;;7381084;19;108878;-95
2022/05/23 04:02:52;;;;;;;12.65;7.63;;;17.80;99.90;;;;;;7381705;19;107942;-95
2022/05/23 04:05:18;;;;;;;13.73;7.72;;;17.80;99.90;;;;;;7379213;19;109919;-94
2022/05/23 04:07:46;;;;;;;11.35;7.10;;;17.80;99.90;;;;;;7381721;19;107458;-94
2022/05/23 04:10:17;;;;;;;12.88;8.07;;;17.90;99.90;;;;;;7381237;19;107865;-94
2022/05/23 04:12:45;;;;;;;10.60;6.28;;;17.90;99.90;;;;;;7387558;19;106848;-95
2022/05/23 04:15:13;;;;;;;14.00;8.52;;;17.90;99.90;;;;;;7381642;19;107906;-94
2022/05/23 04:17:40;;;;;;;14.30;8.65;;;18.00;99.90;;;;;;7381437;19;108439;-93
2022/05/23 04:20:08;;;;;;;11.80;8.52;;;17.80;99.90;;;;;;7380069;19;107490;-94
2022/05/23 04:22:36;;;;;;;19.70;8.63;;;17.70;99.90;;;;;;7381020;19;108046;-96
2022/05/23 04:25:05;;;;;;;16.98;8.93;;;17.60;99.90;;;;;;7380379;19;109678;-94
2022/05/23 04:27:32;;;;;;;13.38;8.63;;;17.60;99.90;;;;;;7380535;19;106791;-94
2022/05/23 04:29:59;;;;;;;11.45;7.85;;;17.50;99.90;;;;;;7379326;19;110403;-94
2022/05/23 04:35:15;;;;;;;12.30;7.88;;;17.60;99.90;;;;;;7386902;19;107466;-91
2022/05/23 04:37:51;;;;;;;12.00;7.65;;;17.70;99.90;;;;;;7379625;19;107884;-95
2022/05/23 04:40:21;;;;;;;12.25;8.57;;;17.80;99.90;;;;;;7379259;19;107079;-94
2022/05/23 04:42:49;;;;;;;15.73;8.77;;;17.90;99.90;;;;;;7380029;19;106883;-94
2022/05/23 04:45:16;;;;;;;18.23;9.38;;;17.80;99.90;;;;;;7380808;19;107525;-95
2022/05/23 04:50:29;;;;;;;18.25;8.15;;;17.80;99.90;;;;;;7379656;19;107736;-95
2022/05/23 04:52:57;;;;;;;17.27;8.98;;;17.80;99.90;;;;;;7364513;19;107100;-95
2022/05/23 04:55:24;;;;;;;20.70;8.20;;;17.90;99.90;;;;;;7345633;19;109846;-94
2022/05/23 04:57:52;;;;;;;16.30;7.50;;;17.90;99.90;;;;;;7349100;19;107513;-94
2022/05/23 05:00:20;;;;;;;15.75;9.18;;;17.90;99.90;;;;;;7342456;19;110550;-95
2022/05/23 05:02:49;;;;;;;14.23;8.60;;;18.00;99.90;;;;;;7345018;19;107605;-94
2022/05/23 05:05:18;;;;;;;18.77;8.57;;;18.00;99.90;;;;;;7345223;19;110519;-94
2022/05/23 05:07:45;;;;;;;19.02;8.60;;;18.10;99.90;;;;;;7346119;19;107900;-94
2022/05/23 05:10:12;;;;;;;15.98;7.93;;;18.10;99.90;;;;;;7346498;19;107733;-96
2022/05/23 05:12:39;;;;;;;15.50;8.32;;;18.20;99.90;;;;;;7346563;19;107842;-96
2022/05/23 05:15:08;;;;;;;17.83;7.75;;;18.20;99.90;;;;;;7345511;19;110886;-95
2022/05/23 05:17:35;;;;;;;10.25;8.18;;;18.30;99.90;;;;;;7346094;19;108379;-93
2022/05/23 05:20:03;;;;;;;15.68;8.68;;;18.30;99.90;;;;;;7348969;19;109748;-93
2022/05/23 05:22:30;;;;;;;21.98;9.73;;;18.50;99.90;;;;;;7343086;19;109385;-94
2022/05/23 05:24:57;;;;;;;18.15;8.70;;;18.50;99.90;;;;;;7342914;19;109369;-94
2022/05/23 05:27:24;;;;;;;13.27;9.40;;;18.50;99.90;;;;;;7342203;19;111641;-93
2022/05/23 05:29:51;;;;;;;14.57;8.68;;;18.50;99.90;;;;;;7341716;19;108438;-94
2022/05/23 05:32:38;;;;;;;15.38;9.65;;;18.50;99.90;;;;;;7342534;19;107898;-94
2022/05/23 05:35:25;;;;;;;15.50;9.25;;;18.50;99.90;;;;;;7341649;19;108209;-94
2022/05/23 05:38:04;;;;;;;26.08;9.80;;;18.60;99.90;;;;;;7340058;19;110884;-94
2022/05/23 05:40:34;;;;;;;22.50;10.25;;;18.80;99.90;;;;;;7339925;19;111484;-94
2022/05/23 05:43:13;;;;;;;20.40;9.50;;;18.90;99.90;;;;;;7345766;19;112096;-95
2022/05/23 05:45:49;;;;;;;19.42;9.48;;;18.90;99.90;;;;;;7336691;19;110388;-94
2022/05/23 05:48:17;;;;;;;17.73;10.13;;;18.90;99.90;;;;;;7337775;19;107501;-93
2022/05/23 05:50:45;;;;;;;22.75;9.30;;;18.90;99.90;;;;;;7331947;19;111223;-93
2022/05/23 05:53:20;;;;;;;15.93;10.15;;;18.90;99.90;;;;;;7340304;19;111385;-93
2022/05/23 05:55:48;;;;;;;18.38;11.70;;;18.90;99.90;;;;;;7336959;19;112071;-94
2022/05/23 05:58:17;;;;;;;15.55;10.93;;;18.90;99.90;;;;;;7338701;19;110392;-93
2022/05/23 06:00:47;;;;;;;17.63;10.82;;;19.00;99.90;;;;;;7348463;19;110928;-94
2022/05/23 06:03:14;;;;;;;19.00;10.77;;;18.90;99.90;;;;;;7359518;19;111459;-93
2022/05/23 06:11:26;;;;;;;19.95;11.98;;;19.10;99.90;;;;;;7354566;19;111100;-96
2022/05/23 06:14:01;;;;;;;16.58;11.30;;;19.10;99.90;;;;;;7356248;19;111844;-96
2022/05/23 06:16:31;;;;;;;18.60;10.52;;;19.00;99.90;;;;;;7355103;19;111147;-96
2022/05/23 06:18:58;;;;;;;21.60;11.40;;;19.00;99.90;;;;;;7355602;19;111100;-96
2022/05/23 06:21:28;;;;;;;16.23;10.40;;;19.00;99.90;;;;;;7354593;19;110264;-96
2022/05/23 06:23:55;;;;;;;16.00;11.30;;;19.00;99.90;;;;;;7353046;19;114836;-94
2022/05/23 06:26:26;;;;;;;18.13;10.90;;;19.10;99.90;;;;;;7358119;19;111179;-92
2022/05/23 06:28:53;;;;;;;21.95;10.68;;;19.10;99.90;;;;;;7350366;19;111221;-93
2022/05/23 06:31:21;;;;;;;15.32;10.40;;;19.30;99.90;;;;;;7350155;19;111831;-93
2022/05/23 06:33:49;;;;;;;19.20;10.23;;;19.30;99.90;;;;;;7350384;19;110823;-95
2022/05/23 06:36:17;;;;;;;20.45;10.80;;;19.50;99.90;;;;;;7350477;19;111629;-94
2022/05/23 06:38:44;;;;;;;14.98;10.02;;;19.60;99.90;;;;;;7352003;19;110229;-94
2022/05/23 06:41:13;;;;;;;20.60;9.88;;;19.70;99.90;;;;;;7351723;19;113900;-95
2022/05/23 06:43:41;;;;;;;14.70;10.10;;;19.80;99.90;;;;;;7355833;19;107128;-95
2022/05/23 06:46:10;;;;;;;16.83;9.65;;;19.90;99.90;;;;;;7348451;19;110950;-94
2022/05/23 06:48:38;;;;;;;16.45;9.63;;;19.90;99.90;;;;;;7360140;19;110597;-94
2022/05/23 06:51:06;;;;;;;14.07;10.43;;;20.00;99.90;;;;;;7354166;19;111892;-95
2022/05/23 06:53:33;;;;;;;12.82;9.05;;;20.00;99.90;;;;;;7350442;19;110657;-96
2022/05/23 06:56:00;;;;;;;13.30;8.65;;;20.10;99.90;;;;;;7353122;19;108872;-95
2022/05/23 06:58:27;;;;;;;9.80;8.73;;;20.10;99.90;;;;;;7352033;19;111828;-94
2022/05/23 07:00:54;;;;;;;15.98;9.30;;;20.10;99.90;;;;;;7354237;19;108615;-94
2022/05/23 07:03:22;;;;;;;8.75;7.85;;;20.20;99.90;;;;;;7352306;19;110494;-94
2022/05/23 07:14:07;;;;;;;8.20;7.22;;;20.20;99.90;;;;;;7352392;19;108136;-94
2022/05/23 07:16:35;;;;;;;14.68;7.07;;;20.10;99.90;;;;;;7353710;19;107338;-95
2022/05/23 07:19:04;;;;;;;14.35;6.63;;;20.20;99.90;;;;;;7352664;19;107916;-94
2022/05/23 07:21:32;;;;;;;10.02;6.50;;;20.20;99.90;;;;;;7350312;19;107911;-95
2022/05/23 07:23:59;;;;;;;8.68;5.80;;;20.30;99.90;;;;;;7351185;19;108824;-93
2022/05/23 07:26:27;;;;;;;10.75;5.53;;;20.30;99.90;;;;;;7352061;19;109040;-94
2022/05/23 07:28:55;;;;;;;9.55;5.72;;;20.40;99.90;;;;;;7350219;19;108564;-92
2022/05/23 07:31:22;;;;;;;10.05;5.80;;;20.40;99.90;;;;;;7351432;19;108343;-94
2022/05/23 07:33:49;;;;;;;7.68;5.45;;;20.40;99.90;;;;;;7357581;19;112029;-93
2022/05/23 07:36:18;;;;;;;8.25;5.53;;;20.50;99.90;;;;;;7350833;19;108284;-93
2022/05/23 07:38:46;;;;;;;9.20;5.60;;;20.50;99.90;;;;;;7351359;19;109307;-94
2022/05/23 07:41:14;;;;;;;8.05;5.25;;;20.50;99.90;;;;;;7348596;19;107319;-94
2022/05/23 07:43:42;;;;;;;9.30;4.80;;;20.50;99.90;;;;;;7349543;19;107494;-93
2022/05/23 07:46:14;;;;;;;10.32;4.55;;;20.50;99.90;;;;;;7349371;19;109712;-93
2022/05/23 07:48:45;;;;;;;9.60;4.70;;;20.60;99.90;;;;;;7351550;19;108288;-92
2022/05/23 07:51:15;;;;;;;9.00;4.00;;;20.60;99.90;;;;;;7349123;19;108059;-93
2022/05/23 08:02:00;;;;;;;9.15;4.47;;;20.70;99.90;;;;;;7353325;19;107235;-93
2022/05/23 08:04:27;;;;;;;13.63;4.15;;;20.80;99.90;;;;;;7353152;19;108159;-94
2022/05/23 08:06:55;;;;;;;14.02;4.30;;;20.80;99.90;;;;;;7350747;19;110194;-93
2022/05/23 08:09:22;;;;;;;9.07;4.20;;;20.90;99.90;;;;;;7351001;19;110481;-92
2022/05/23 08:11:53;;;;;;;13.07;4.15;;;20.90;99.90;;;;;;7350734;19;110563;-93
2022/05/23 08:14:21;;;;;;;6.13;4.38;;;21.00;99.90;;;;;;7348746;19;109292;-93
2022/05/23 08:16:50;;;;;;;16.90;4.40;;;20.90;99.90;;;;;;7356224;19;108228;-93
2022/05/23 08:19:17;;;;;;;9.02;4.20;;;20.90;99.90;;;;;;7351612;19;108018;-94
2022/05/23 08:21:48;;;;;;;14.50;4.80;;;21.00;99.90;;;;;;7349197;19;108266;-94
2022/05/23 08:24:16;;;;;;;20.30;4.82;;;21.10;99.90;;;;;;7349867;19;109793;-93
2022/05/23 08:26:43;;;;;;;10.43;4.50;;;21.20;99.90;;;;;;7348639;19;107538;-92
2022/05/23 08:29:10;;;;;;;10.65;4.25;;;21.30;99.90;;;;;;7348745;19;107752;-91
2022/05/23 08:31:45;;;;;;;6.28;3.42;;;21.40;99.90;;;;;;7351222;19;107469;-92
2022/05/23 08:34:13;;;;;;;9.70;3.85;;;21.50;99.90;;;;;;7349340;19;107259;-93
2022/05/23 08:36:39;;;;;;;7.68;3.42;;;21.70;99.90;;;;;;7349873;19;107515;-92
2022/05/23 08:39:07;;;;;;;8.82;4.03;;;21.90;99.90;;;;;;7354978;19;108119;-93
2022/05/23 08:41:40;;;;;;;5.65;3.42;;;22.00;99.90;;;;;;7349787;19;109408;-94
2022/05/23 08:44:41;;;;;;;6.65;3.40;;;22.20;99.90;;;;;;7350910;19;107208;-92
2022/05/23 08:47:28;;;;;;;7.80;3.25;;;22.30;99.90;;;;;;7348864;19;106787;-92
2022/05/23 08:50:14;;;;;;;6.72;3.00;;;22.40;99.90;;;;;;7349262;19;110057;-95
2022/05/23 08:52:47;;;;;;;3.38;2.72;;;22.50;99.90;;;;;;7347562;19;107714;-93
2022/05/23 08:55:24;;;;;;;5.32;2.30;;;22.70;99.90;;;;;;7348953;19;109896;-92
2022/05/23 08:58:01;;;;;;;6.20;2.50;;;22.90;99.90;;;;;;7349098;19;107686;-92
2022/05/23 09:00:38;;;;;;;4.07;2.60;;;23.20;99.90;;;;;;7347738;19;108401;-95
2022/05/23 09:03:20;;;;;;;2.75;2.20;;;23.20;99.60;;;;;;7354276;19;108656;-93
2022/05/23 09:06:13;;;;;;;4.85;2.22;;;23.10;99.50;;;;;;7349500;19;110368;-94
2022/05/23 09:09:07;;;;;;;7.15;2.80;;;23.10;99.40;;;;;;7350998;19;111701;-93
2022/05/23 09:11:41;;;;;;;4.93;3.10;;;23.20;99.50;;;;;;7350208;19;108135;-93
2022/05/23 09:14:11;;;;;;;3.72;2.60;;;23.40;99.90;;;;;;7350545;19;109239;-91
2022/05/23 09:16:50;;;;;;;4.00;2.22;;;23.50;99.20;;;;;;7347674;19;110897;-92
2022/05/23 09:19:35;;;;;;;5.78;2.55;;;23.70;99.40;;;;;;7349840;19;108399;-93
2022/05/23 09:22:18;;;;;;;4.78;2.72;;;23.80;98.30;;;;;;7348967;19;108214;-93
2022/05/23 09:24:57;;;;;;;7.25;2.25;;;23.90;98.80;;;;;;7348402;19;110423;-94
2022/05/23 09:27:40;;;;;;;5.53;1.85;;;24.00;98.60;;;;;;7353729;19;108035;-93
2022/05/23 09:30:11;;;;;;;6.57;2.00;;;24.30;98.40;;;;;;7348939;19;108870;-92
2022/05/23 09:32:56;;;;;;;3.45;2.08;;;24.50;97.80;;;;;;7347595;19;109145;-93
2022/05/23 09:35:42;;;;;;;8.07;2.00;;;24.50;96.40;;;;;;7343147;19;108290;-93
2022/05/23 09:38:26;;;;;;;6.75;2.17;;;24.60;97.30;;;;;;7346625;19;110724;-93
2022/05/23 09:40:54;;;;;;;4.47;1.90;;;24.70;96.70;;;;;;7344897;19;107352;-92
2022/05/23 09:49:23;;;;;;;4.25;2.45;;;25.10;96.70;;;;;;7346864;19;109672;-92
2022/05/23 09:51:55;;;;;;;9.68;2.53;;;25.20;96.20;;;;;;7351810;19;107928;-92
2022/05/23 09:54:35;;;;;;;3.33;1.73;;;25.30;96.40;;;;;;7347224;19;110591;-92
2022/05/23 09:57:08;;;;;;;3.55;1.98;;;25.40;95.80;;;;;;7345460;19;110834;-91
2022/05/23 09:59:37;;;;;;;6.82;1.80;;;25.40;95.20;;;;;;7346605;19;111829;-92
2022/05/23 10:02:36;;;;;;;4.00;1.85;;;25.40;95.40;;;;;;7345833;19;108468;-92
2022/05/23 10:05:07;;;;;;;2.85;1.40;;;25.50;93.90;;;;;;7346440;19;109726;-91
2022/05/23 10:07:37;;;;;;;3.50;1.80;;;25.50;94.80;;;;;;7345658;19;111761;-90
2022/05/23 10:10:24;;;;;;;4.20;1.77;;;25.50;94.40;;;;;;7348654;19;108278;-92
2022/05/23 10:13:09;;;;;;;4.00;1.80;;;25.40;94.40;;;;;;7347275;19;108515;-92
2022/05/23 10:15:43;;;;;;;4.25;2.05;;;25.40;95.10;;;;;;7351975;19;110121;-90
2022/05/23 10:18:16;;;;;;;4.03;1.60;;;25.30;94.90;;;;;;7347741;19;107586;-92
2022/05/23 10:20:43;;;;;;;3.22;1.60;;;25.30;95.30;;;;;;7348197;19;110360;-92
2022/05/23 10:23:22;;;;;;;4.30;1.52;;;25.30;95.60;;;;;;7346322;19;107153;-92
2022/05/23 10:26:16;;;;;;;3.72;1.50;;;25.30;94.80;;;;;;7346404;19;108118;-93
2022/05/23 10:29:09;;;;;;;3.42;1.40;;;25.20;94.30;;;;;;7344883;19;109087;-91
2022/05/23 10:32:07;;;;;;;5.70;1.38;;;25.10;94.20;;;;;;7345834;19;108575;-92
2022/05/23 10:34:50;;;;;;;2.60;1.25;;;25.00;94.50;;;;;;7345196;19;108298;-95
2022/05/23 10:37:23;;;;;;;4.63;1.00;;;24.90;94.20;;;;;;7353166;19;110288;-93
2022/05/23 10:42:45;;;;;;;3.03;1.10;;;25.00;94.40;;;;;;7341924;19;107459;-92
2022/05/23 10:45:29;;;;;;;2.83;1.17;;;25.00;95.00;;;;;;7346018;19;107968;-93
2022/05/23 10:48:23;;;;;;;3.55;1.10;;;25.10;94.90;;;;;;7354541;19;108440;-92
2022/05/23 10:51:02;;;;;;;3.17;1.25;;;25.20;94.50;;;;;;7354538;19;107604;-96
2022/05/23 10:53:59;;;;;;;1.50;0.80;;;25.30;94.30;;;;;;7352529;19;109180;-93
2022/05/23 10:57:14;;;;;;;3.28;0.98;;;25.30;93.10;;;;;;7351433;19;108008;-90
2022/05/23 11:00:07;;;;;;;4.03;1.10;;;25.20;93.80;;;;;;7348561;19;108498;-91
2022/05/23 11:03:00;;;;;;;5.65;1.20;;;25.10;93.40;;;;;;7355168;19;108002;-92
2022/05/23 11:06:04;;;;;;;3.90;1.05;;;25.10;93.50;;;;;;7350832;19;109245;-92
2022/05/23 11:09:01;;;;;;;2.80;1.00;;;25.10;94.40;;;;;;7351556;19;110406;-92
2022/05/23 11:11:51;;;;;;;2.15;1.30;;;25.20;94.30;;;;;;7353503;19;110618;-91
2022/05/23 11:14:30;;;;;;;2.53;1.52;;;25.30;94.10;;;;;;7352684;19;111285;-92
2022/05/23 11:17:03;;;;;;;2.53;1.20;;;25.40;94.60;;;;;;7351290;19;109195;-91
2022/05/23 11:19:42;;;;;;;6.15;1.58;;;25.40;94.50;;;;;;7349098;19;110856;-90
2022/05/23 11:22:17;;;;;;;2.63;1.17;;;25.50;94.70;;;;;;7348612;19;110306;-90
2022/05/23 11:25:25;;;;;;;3.63;1.10;;;25.50;94.10;;;;;;7347864;19;109694;-90
2022/05/23 11:33:41;;;;;;;3.42;1.60;;;25.80;94.60;;;;;;7350737;19;108351;-91
2022/05/23 11:36:10;;;;;;;1.90;1.40;;;25.80;94.20;;;;;;7350963;19;111373;-91
2022/05/23 11:38:45;;;;;;;6.30;1.80;;;25.80;94.20;;;;;;7351169;19;106830;-91
2022/05/23 11:41:30;;;;;;;3.33;1.38;;;25.90;94.40;;;;;;7347701;19;108250;-92
2022/05/23 11:43:57;;;;;;;6.50;1.92;;;25.90;94.30;;;;;;7349708;19;107536;-92
2022/05/23 11:46:27;;;;;;;5.85;1.60;;;26.00;94.20;;;;;;7348021;19;109935;-92
2022/05/23 11:49:00;;;;;;;8.63;1.63;;;26.00;94.30;;;;;;7352549;19;108280;-92
2022/05/23 11:51:37;;;;;;;4.65;1.58;;;26.00;94.40;;;;;;7355847;19;108994;-92
2022/05/23 11:54:12;;;;;;;5.83;1.87;;;26.10;94.60;;;;;;7351008;19;108223;-93
2022/05/23 11:56:47;;;;;;;3.28;1.70;;;26.00;94.80;;;;;;7350768;19;108935;-92
2022/05/23 11:59:23;;;;;;;2.40;1.38;;;26.00;94.70;;;;;;7346449;19;108306;-92
2022/05/23 12:02:12;;;;;;;3.00;1.60;;;26.00;94.80;;;;;;7351092;19;107930;-92
2022/05/23 12:04:52;;;;;;;9.57;1.90;;;25.90;94.80;;;;;;7346151;19;108012;-91
2022/05/23 12:07:34;;;;;;;6.55;2.30;;;25.80;95.60;;;;;;7349219;19;111036;-90
2022/05/23 12:10:23;;;;;;;7.20;1.75;;;25.70;96.20;;;;;;7349312;19;110711;-92
2022/05/23 12:12:55;;;;;;;4.90;2.42;;;25.50;96.80;;;;;;7350386;19;111196;-91
2022/05/23 12:15:44;;;;;;;8.05;2.22;;;25.30;96.90;;;;;;7355035;19;107944;-92
2022/05/23 12:18:23;;;;;;;4.40;2.30;;;25.30;97.70;;;;;;7349774;19;109297;-93
2022/05/23 12:20:56;;;;;;;5.18;2.42;;;25.20;97.80;;;;;;7350175;19;109888;-92
2022/05/23 12:23:47;;;;;;;4.57;2.78;;;25.20;98.20;;;;;;7349921;19;110573;-92
2022/05/23 12:26:25;;;;;;;5.05;2.22;;;25.10;98.80;;;;;;7349479;19;110297;-92
2022/05/23 12:29:00;;;;;;;3.92;2.67;;;25.00;98.90;;;;;;7351138;19;108112;-92
2022/05/23 12:31:33;;;;;;;7.55;3.30;;;24.90;98.80;;;;;;7348277;19;108606;-93
2022/05/23 12:34:03;;;;;;;5.55;3.38;;;24.90;99.20;;;;;;7351219;19;109949;-92
2022/05/23 12:36:34;;;;;;;9.77;3.35;;;24.80;99.20;;;;;;7350449;19;110709;-92
2022/05/23 12:39:07;;;;;;;6.45;3.70;;;24.70;99.50;;;;;;7354721;19;110822;-92
2022/05/23 12:41:37;;;;;;;9.77;3.65;;;24.60;99.60;;;;;;7346812;19;110213;-92
2022/05/23 12:44:34;;;;;;;6.85;3.53;;;24.50;99.90;;;;;;7349401;19;111791;-91
2022/05/23 12:47:35;;;;;;;5.80;3.30;;;24.40;99.90;;;;;;7349130;19;108889;-92
2022/05/23 12:50:27;;;;;;;6.10;2.75;;;24.30;99.90;;;;;;7349932;19;108275;-91
2022/05/23 12:53:18;;;;;;;6.40;2.47;;;24.10;99.90;;;;;;7349614;19;111731;-90
2022/05/23 12:56:15;;;;;;;5.38;2.67;;;23.90;99.90;;;;;;7347180;19;110874;-91
2022/05/23 12:59:11;;;;;;;5.90;2.67;;;23.70;99.90;;;;;;7347508;19;108210;-92
2022/05/23 13:01:43;;;;;;;9.10;3.22;;;23.50;99.90;;;;;;7353589;19;109969;-91
2022/05/23 13:04:19;;;;;;;9.13;3.35;;;23.40;99.90;;;;;;7346314;19;109932;-91
2022/05/23 13:07:05;;;;;;;5.20;2.90;;;23.30;99.90;;;;;;7347241;19;109433;-91
2022/05/23 13:09:54;;;;;;;6.35;3.05;;;23.20;99.90;;;;;;7348198;19;108202;-91
2022/05/23 13:12:43;;;;;;;5.40;2.97;;;23.10;99.90;;;;;;7346973;19;108149;-91
2022/05/23 13:15:21;;;;;;;6.38;2.83;;;23.10;99.90;;;;;;7344974;19;109421;-91
2022/05/23 13:17:48;;;;;;;5.18;2.95;;;23.10;99.90;;;;;;7345657;19;109884;-91
2022/05/23 13:23:17;;;;;;;5.50;3.08;;;23.20;99.90;;;;;;7346828;19;108335;-92
2022/05/23 13:25:46;;;;;;;6.18;3.45;;;23.20;99.90;;;;;;7349086;19;112146;-91
2022/05/23 13:28:15;;;;;;;5.50;3.05;;;23.20;99.90;;;;;;7345128;19;110957;-91
2022/05/23 13:30:47;;;;;;;6.43;3.17;;;23.20;99.90;;;;;;7346756;19;109238;-93
2022/05/23 13:33:16;;;;;;;8.68;3.10;;;23.20;99.90;;;;;;7347340;19;108581;-92
2022/05/23 13:35:54;;;;;;;4.82;3.17;;;23.20;99.90;;;;;;7347909;19;108185;-91
2022/05/23 13:38:31;;;;;;;8.02;3.47;;;23.20;99.90;;;;;;7346722;19;106683;-93
2022/05/23 13:41:05;;;;;;;5.55;3.53;;;23.10;99.90;;;;;;7343703;19;107212;-91
2022/05/23 13:43:45;;;;;;;4.68;3.25;;;23.00;99.90;;;;;;7346748;19;108247;-91
2022/05/23 13:46:37;;;;;;;6.22;3.15;;;22.90;99.90;;;;;;7344623;19;111120;-90
2022/05/23 13:49:27;;;;;;;6.50;3.58;;;22.70;99.90;;;;;;7353737;19;108297;-91
2022/05/23 13:51:58;;;;;;;6.60;3.38;;;22.60;99.90;;;;;;7346278;19;112009;-91
2022/05/23 13:54:51;;;;;;;7.65;3.47;;;22.60;99.90;;;;;;7346765;19;107807;-91
2022/05/23 13:57:27;;;;;;;7.78;3.90;;;22.60;99.90;;;;;;7347625;19;108260;-89
2022/05/23 14:00:03;;;;;;;4.03;3.03;;;22.40;99.90;;;;;;7348890;19;111568;-91